Time;durP1;ratioP1;P1;durP2;ratioP2;P2;SDS_P1;SDS_P2;PMS_P1;PMS_P2;Temp;Humidity;BMP_temperature;BMP_pressure;BME280_temperature;BME280_humidity;BME280_pressure;Samples;Min_cycle;Max_cycle;Signal;HPM_P1;HPM_P2
2022/09/04 00:01:46;;;;;;;2.00;1.25;;;;;;;26.99;42.42;101109.91;5055542;28;20566;-60
2022/09/04 00:04:20;;;;;;;4.18;1.33;;;;;;;26.94;41.36;101117.16;5055149;28;20025;-59
2022/09/04 00:07:06;;;;;;;1.92;1.20;;;;;;;26.88;41.98;101121.66;5056467;28;20032;-59
2022/09/04 00:09:53;;;;;;;1.88;1.65;;;;;;;26.82;41.57;101122.56;5055262;28;20036;-59
2022/09/04 00:12:26;;;;;;;1.55;1.23;;;;;;;26.76;42.09;101123.44;5038401;28;20390;-59
2022/09/04 00:15:05;;;;;;;2.90;1.35;;;;;;;26.70;41.76;101129.84;5055130;28;20040;-60
2022/09/04 00:17:59;;;;;;;2.67;1.40;;;;;;;26.62;41.75;101143.88;5055037;28;20067;-59
2022/09/04 00:20:42;;;;;;;2.13;1.20;;;;;;;26.54;41.97;101139.53;5045991;28;20083;-59
2022/09/04 00:23:39;;;;;;;1.88;1.20;;;;;;;26.48;42.19;101142.34;5056233;28;20045;-59
2022/09/04 00:26:30;;;;;;;3.30;1.63;;;;;;;26.39;41.90;101138.19;5055284;28;20041;-60
2022/09/04 00:29:00;;;;;;;2.05;1.30;;;;;;;26.34;42.18;101135.28;5055020;28;20028;-60
2022/09/04 00:31:42;;;;;;;2.25;1.60;;;;;;;26.30;41.88;101145.03;5038106;28;20032;-59
2022/09/04 00:34:32;;;;;;;4.30;1.80;;;;;;;26.27;42.57;101142.75;5053932;28;20035;-60
2022/09/04 00:37:00;;;;;;;7.18;1.40;;;;;;;26.21;42.69;101151.88;5055016;28;20023;-60
2022/09/04 00:39:39;;;;;;;1.77;1.45;;;;;;;26.15;41.95;101147.28;5038508;28;20035;-60
2022/09/04 00:42:27;;;;;;;5.90;1.80;;;;;;;26.13;43.01;101150.19;5037946;28;20035;-59
2022/09/04 00:45:15;;;;;;;3.45;1.73;;;;;;;26.08;43.03;101149.19;5054296;28;20040;-59
2022/09/04 00:48:17;;;;;;;3.55;1.55;;;;;;;26.04;43.00;101152.41;5054116;28;20108;-59
2022/09/04 00:51:04;;;;;;;1.30;1.20;;;;;;;25.99;43.01;101152.19;5055458;28;20036;-59
2022/09/04 00:53:44;;;;;;;4.35;1.83;;;;;;;25.94;42.64;101149.28;5054340;28;20037;-60
2022/09/04 00:56:28;;;;;;;1.23;1.13;;;;;;;25.89;42.79;101157.34;5055433;28;20020;-60
2022/09/04 00:59:09;;;;;;;1.73;1.10;;;;;;;25.86;42.74;101157.78;5055450;28;20031;-59
2022/09/04 01:01:34;;;;;;;6.53;1.50;;;;;;;25.80;42.93;101164.16;5055479;28;20067;-59
2022/09/04 01:04:06;;;;;;;1.88;1.40;;;;;;;25.76;42.70;101162.09;5054193;28;20029;-61
2022/09/04 01:06:40;;;;;;;1.70;1.38;;;;;;;25.72;42.99;101161.69;5053989;28;20029;-60
2022/09/04 01:09:43;;;;;;;1.90;1.48;;;;;;;25.69;43.33;101164.84;5054651;28;20482;-59
2022/09/04 01:12:39;;;;;;;1.80;1.27;;;;;;;25.64;43.28;101167.41;5053129;28;20160;-60
2022/09/04 01:15:14;;;;;;;3.05;1.42;;;;;;;25.58;43.40;101171.03;5055064;28;20021;-59
2022/09/04 01:18:12;;;;;;;1.95;1.40;;;;;;;25.55;43.48;101173.38;5055422;28;20498;-59
2022/09/04 01:20:54;;;;;;;4.70;1.50;;;;;;;25.49;42.96;101169.59;5053802;28;20037;-60
2022/09/04 01:23:38;;;;;;;2.20;1.20;;;;;;;25.45;43.10;101180.16;5055074;28;20090;-60
2022/09/04 01:26:21;;;;;;;4.13;1.75;;;;;;;25.42;43.19;101179.75;5054832;28;20072;-60
2022/09/04 01:29:14;;;;;;;3.83;1.70;;;;;;;25.37;43.71;101182.31;5053750;28;20087;-60
2022/09/04 01:32:08;;;;;;;1.63;1.52;;;;;;;25.31;43.46;101186.75;5053855;28;20017;-60
2022/09/04 01:34:43;;;;;;;5.95;1.67;;;;;;;25.25;43.80;101178.53;5054853;28;20017;-59
2022/09/04 01:37:43;;;;;;;2.20;1.63;;;;;;;25.24;44.14;101196.03;5053530;28;20057;-61
2022/09/04 01:40:18;;;;;;;4.15;1.42;;;;;;;25.20;43.45;101197.56;5052147;28;20494;-59
2022/09/04 01:43:19;;;;;;;2.08;1.52;;;;;;;25.13;44.51;101189.34;5053161;28;20064;-60
2022/09/04 01:45:51;;;;;;;2.05;1.23;;;;;;;25.14;43.45;101199.25;5053341;28;20037;-59
2022/09/04 01:48:22;;;;;;;3.47;1.77;;;;;;;25.08;43.62;101193.78;5054337;28;20063;-59
2022/09/04 01:50:49;;;;;;;2.70;1.33;;;;;;;25.08;43.33;101193.78;5036841;28;20035;-59
2022/09/04 01:53:23;;;;;;;1.35;1.25;;;;;;;25.09;44.19;101206.44;5036477;28;20072;-59
2022/09/04 01:56:20;;;;;;;1.30;1.17;;;;;;;25.08;43.58;101210.22;5036531;28;20474;-59
2022/09/04 01:59:05;;;;;;;1.85;1.27;;;;;;;25.05;44.15;101218.88;5053757;28;20029;-59
2022/09/04 02:01:51;;;;;;;3.67;1.65;;;;;;;25.03;43.94;101212.78;5054315;28;20025;-60
2022/09/04 02:04:57;;;;;;;1.52;1.13;;;;;;;25.01;44.48;101215.75;5053041;28;20086;-59
2022/09/04 02:07:33;;;;;;;2.70;1.25;;;;;;;25.00;43.59;101213.19;5053665;28;20513;-59
2022/09/04 02:10:16;;;;;;;2.65;1.42;;;;;;;24.97;44.30;101219.09;5036558;28;20028;-61
2022/09/04 02:12:51;;;;;;;1.50;1.40;;;;;;;24.93;44.60;101226.09;5054072;28;20036;-61
2022/09/04 02:15:36;;;;;;;2.70;1.60;;;;;;;24.90;43.86;101225.44;5052901;28;20025;-60
2022/09/04 02:18:13;;;;;;;5.25;2.00;;;;;;;24.86;43.87;101221.47;5052687;28;20029;-59
2022/09/04 02:20:44;;;;;;;2.67;1.13;;;;;;;24.87;44.29;101231.34;5052797;28;20024;-59
2022/09/04 02:23:39;;;;;;;1.45;1.30;;;;;;;24.86;44.14;101224.19;5053235;28;20492;-59
2022/09/04 02:26:19;;;;;;;1.60;1.27;;;;;;;24.83;44.77;101230.09;5035780;28;20025;-59
2022/09/04 02:29:00;;;;;;;2.03;1.48;;;;;;;24.78;44.18;101229.88;5035855;28;20056;-59
2022/09/04 02:31:51;;;;;;;2.42;1.35;;;;;;;24.77;44.11;101230.91;5052619;28;20039;-60
2022/09/04 02:35:01;;;;;;;1.67;1.40;;;;;;;24.73;45.05;101229.66;5053698;28;20032;-60
2022/09/04 02:37:39;;;;;;;2.90;1.45;;;;;;;24.70;44.96;101230.09;5053255;28;20091;-60
2022/09/04 02:40:13;;;;;;;2.00;1.40;;;;;;;24.67;44.22;101230.50;5053587;28;20029;-60
2022/09/04 02:42:41;;;;;;;2.00;1.55;;;;;;;24.66;44.45;101234.28;5052289;28;20111;-60
2022/09/04 02:45:32;;;;;;;2.42;1.60;;;;;;;24.65;45.05;101238.06;5053455;28;20363;-60
2022/09/04 02:48:23;;;;;;;2.78;1.20;;;;;;;24.61;44.71;101231.34;5052270;28;20036;-60
2022/09/04 02:51:12;;;;;;;1.73;1.52;;;;;;;24.62;45.21;101230.28;5053469;28;20530;-60
2022/09/04 02:54:00;;;;;;;2.10;1.40;;;;;;;24.61;44.91;101239.56;5051779;28;20025;-61
2022/09/04 02:56:47;;;;;;;4.13;1.52;;;;;;;24.61;44.47;101235.97;5052376;28;20024;-60
2022/09/04 02:59:30;;;;;;;3.97;1.52;;;;;;;24.60;44.69;101235.13;5051768;28;20036;-60
2022/09/04 03:01:59;;;;;;;2.00;1.15;;;;;;;24.57;44.38;101234.69;5052133;28;20030;-60
2022/09/04 03:04:35;;;;;;;2.85;1.65;;;;;;;24.63;44.91;101234.72;5053454;28;20498;-60
2022/09/04 03:07:07;;;;;;;1.70;1.27;;;;;;;24.60;44.51;101235.13;5053235;28;20426;-60
2022/09/04 03:09:32;;;;;;;2.80;1.90;;;;;;;24.60;45.17;101245.25;5051993;28;20020;-60
2022/09/04 03:12:14;;;;;;;2.42;1.65;;;;;;;24.58;45.26;101231.78;5051809;28;20043;-60
2022/09/04 03:14:48;;;;;;;1.85;1.20;;;;;;;24.55;44.80;101243.16;5053135;28;20445;-60
2022/09/04 03:17:25;;;;;;;1.63;1.50;;;;;;;24.54;45.45;101237.91;5035293;28;20039;-60
2022/09/04 03:19:58;;;;;;;2.42;1.45;;;;;;;24.53;44.59;101245.25;5053183;28;20172;-60
2022/09/04 03:22:32;;;;;;;2.95;1.70;;;;;;;24.47;44.74;101239.78;5051658;28;20052;-60
2022/09/04 03:25:33;;;;;;;1.70;1.40;;;;;;;24.49;44.83;101254.09;5051752;28;20033;-60
2022/09/04 03:27:59;;;;;;;3.17;1.60;;;;;;;24.46;45.10;101255.34;5050720;28;20532;-60
2022/09/04 03:30:26;;;;;;;1.90;1.58;;;;;;;24.30;45.02;101233.84;5049870;28;20127;-60
2022/09/04 03:33:05;;;;;;;2.42;1.50;;;;;;;24.43;45.34;101255.78;5049946;28;20111;-60
2022/09/04 03:35:59;;;;;;;1.80;1.50;;;;;;;24.41;45.08;101251.56;5050881;28;20037;-60
2022/09/04 03:38:47;;;;;;;1.77;1.65;;;;;;;24.37;45.37;101255.78;5034108;28;20116;-60
2022/09/04 03:41:42;;;;;;;1.88;1.38;;;;;;;24.32;44.74;101249.03;5050852;28;20397;-60
2022/09/04 03:44:17;;;;;;;5.40;2.78;;;;;;;24.34;45.21;101259.78;5050128;28;20155;-60
2022/09/04 03:46:54;;;;;;;2.40;1.83;;;;;;;24.33;45.33;101267.16;5050713;28;20043;-60
2022/09/04 03:49:33;;;;;;;3.10;1.02;;;;;;;24.30;44.63;101261.25;5050797;28;20545;-62
2022/09/04 03:52:23;;;;;;;2.17;1.52;;;;;;;24.25;44.77;101263.78;5034149;28;20033;-60
2022/09/04 03:55:25;;;;;;;1.33;1.23;;;;;;;24.24;45.47;101262.06;5050541;28;20533;-60
2022/09/04 03:57:55;;;;;;;1.00;0.90;;;;;;;24.21;44.81;101266.06;5037064;28;20037;-60
2022/09/04 04:00:21;;;;;;;2.13;1.65;;;;;;;24.20;44.75;101274.50;5050832;28;20037;-60
2022/09/04 04:03:04;;;;;;;1.50;1.10;;;;;;;24.16;45.42;101270.47;5052277;28;20037;-61
2022/09/04 04:05:39;;;;;;;2.08;1.70;;;;;;;24.17;45.82;101283.13;5050549;28;20029;-61
2022/09/04 04:08:34;;;;;;;1.67;1.20;;;;;;;24.13;44.78;101287.31;5051766;28;20031;-60
2022/09/04 04:11:24;;;;;;;1.73;1.20;;;;;;;24.10;45.61;101282.25;5052629;28;20029;-59
2022/09/04 04:14:11;;;;;;;2.15;1.27;;;;;;;24.07;45.59;101282.63;5052640;28;20393;-60
2022/09/04 04:16:42;;;;;;;1.58;1.30;;;;;;;24.07;45.31;101282.63;5051292;28;20500;-60
2022/09/04 04:19:09;;;;;;;1.20;1.10;;;;;;;24.05;45.94;101280.13;5052599;28;20053;-60
2022/09/04 04:21:54;;;;;;;1.67;1.40;;;;;;;24.01;45.14;101278.00;5052557;28;20124;-60
2022/09/04 04:24:37;;;;;;;1.70;1.60;;;;;;;24.04;45.21;101283.03;5056285;28;20466;-60
2022/09/04 04:27:13;;;;;;;1.33;1.00;;;;;;;24.03;46.01;101290.44;5056186;28;20112;-60
2022/09/04 04:29:54;;;;;;;2.70;1.00;;;;;;;24.01;45.96;101287.03;5056537;28;20043;-59
2022/09/04 04:32:54;;;;;;;2.92;1.00;;;;;;;24.00;45.12;101287.25;5054841;28;20025;-59
2022/09/04 04:35:28;;;;;;;1.80;1.50;;;;;;;23.97;45.14;101293.13;5056024;28;20029;-60
2022/09/04 04:38:00;;;;;;;1.77;1.08;;;;;;;23.97;46.06;101298.59;5055752;28;20021;-60
2022/09/04 04:40:25;;;;;;;1.92;1.20;;;;;;;23.97;46.13;101301.34;5054958;28;20025;-60
2022/09/04 04:42:59;;;;;;;1.27;1.13;;;;;;;23.98;45.47;101308.53;5054826;28;20028;-60
2022/09/04 04:45:49;;;;;;;1.85;1.25;;;;;;;23.97;45.21;101299.47;5054438;28;20025;-59
2022/09/04 04:48:52;;;;;;;1.42;1.20;;;;;;;23.96;45.17;101308.72;5055937;28;20486;-60
2022/09/04 04:51:45;;;;;;;1.95;1.33;;;;;;;23.95;46.14;101306.19;5055346;28;20032;-60
2022/09/04 04:54:25;;;;;;;1.58;1.30;;;;;;;23.93;45.98;101311.84;5055618;28;20028;-60
2022/09/04 04:57:08;;;;;;;1.30;1.08;;;;;;;23.92;45.57;101315.66;5037751;28;20033;-60
2022/09/04 04:59:42;;;;;;;2.15;1.20;;;;;;;23.91;46.26;101313.97;5037975;28;20024;-60
2022/09/04 05:02:20;;;;;;;1.85;1.17;;;;;;;23.89;45.31;101318.81;5055420;28;20025;-61
2022/09/04 05:05:13;;;;;;;1.08;1.05;;;;;;;23.93;45.79;101324.69;5055333;28;20021;-60
2022/09/04 05:07:59;;;;;;;2.53;1.42;;;;;;;23.91;45.31;101321.31;5055221;28;20104;-60
2022/09/04 05:10:30;;;;;;;1.40;1.30;;;;;;;23.90;46.28;101330.59;5053948;28;20025;-60
2022/09/04 05:13:25;;;;;;;1.60;1.50;;;;;;;23.92;45.39;101329.34;5055386;28;20394;-60
2022/09/04 05:16:02;;;;;;;1.77;1.20;;;;;;;23.90;45.38;101331.41;5053117;28;20028;-61
2022/09/04 05:18:33;;;;;;;1.63;1.50;;;;;;;23.95;46.07;101333.56;5053361;28;20364;-59
2022/09/04 05:21:15;;;;;;;3.00;1.33;;;;;;;24.01;45.49;101343.69;5054828;28;20045;-62
2022/09/04 05:23:58;;;;;;;2.03;1.25;;;;;;;24.06;45.49;101355.72;5053909;28;20076;-60
2022/09/04 05:26:33;;;;;;;2.70;1.70;;;;;;;24.10;45.47;101354.28;5055017;28;20040;-60
2022/09/04 05:29:16;;;;;;;2.38;1.58;;;;;;;24.13;46.32;101347.53;5055112;28;20037;-60
2022/09/04 05:31:49;;;;;;;2.95;1.20;;;;;;;24.22;46.46;101360.00;5055351;28;20029;-60
2022/09/04 05:34:21;;;;;;;1.65;1.25;;;;;;;24.28;45.59;101370.16;5053908;28;20386;-61
2022/09/04 05:36:59;;;;;;;2.78;1.10;;;;;;;24.36;46.42;101364.50;5055244;28;20511;-60
2022/09/04 05:39:30;;;;;;;1.98;1.42;;;;;;;24.40;46.29;101371.22;5053626;28;20447;-60
2022/09/04 05:42:14;;;;;;;2.42;1.60;;;;;;;24.51;46.32;101373.38;5036971;28;20021;-64
2022/09/04 05:45:15;;;;;;;2.05;1.20;;;;;;;24.60;45.74;101374.88;5054757;28;20025;-60
2022/09/04 05:48:00;;;;;;;2.95;1.10;;;;;;;24.71;45.79;101376.16;5053519;28;20024;-61
2022/09/04 05:50:55;;;;;;;1.75;1.10;;;;;;;24.86;45.54;101377.69;5052852;28;20047;-60
2022/09/04 05:53:49;;;;;;;1.90;1.17;;;;;;;25.08;45.36;101382.97;5052835;28;20435;-61
2022/09/04 05:56:17;;;;;;;3.45;1.27;;;;;;;25.30;45.92;101384.44;5054406;28;20028;-60
2022/09/04 05:59:10;;;;;;;3.08;1.10;;;;;;;25.49;45.83;101389.09;5053113;28;20021;-60
2022/09/04 06:01:54;;;;;;;2.80;1.35;;;;;;;25.75;45.98;101389.06;5054365;28;20104;-60
2022/09/04 06:04:37;;;;;;;1.80;1.38;;;;;;;25.99;45.31;101388.34;5054510;28;20029;-60
2022/09/04 06:07:36;;;;;;;2.92;1.23;;;;;;;26.26;45.31;101396.53;5054333;28;20108;-60
2022/09/04 06:10:05;;;;;;;3.88;1.40;;;;;;;26.49;44.98;101403.16;5054159;28;20024;-60
2022/09/04 06:12:47;;;;;;;2.50;1.20;;;;;;;26.69;44.84;101389.31;5054286;28;20033;-60
2022/09/04 06:15:43;;;;;;;1.23;1.02;;;;;;;26.94;44.62;101390.22;5054162;28;20070;-61
2022/09/04 06:18:30;;;;;;;3.00;1.15;;;;;;;27.14;44.83;101390.94;5053979;28;20036;-60
2022/09/04 06:21:08;;;;;;;3.55;1.00;;;;;;;27.32;45.02;101390.16;5054060;28;20027;-60
2022/09/04 06:23:58;;;;;;;1.25;1.10;;;;;;;27.52;44.80;101401.00;5053881;28;20033;-60
2022/09/04 06:26:48;;;;;;;2.53;1.20;;;;;;;27.65;44.23;101387.94;5052904;28;20025;-60
2022/09/04 06:29:38;;;;;;;1.70;1.00;;;;;;;27.85;43.83;101404.25;5053147;28;20037;-60
2022/09/04 06:32:32;;;;;;;2.25;1.27;;;;;;;28.03;44.61;101398.78;5052639;28;20028;-60
2022/09/04 06:35:15;;;;;;;2.58;1.20;;;;;;;28.23;43.67;101396.63;5053675;28;20390;-60
2022/09/04 06:37:57;;;;;;;1.77;1.20;;;;;;;28.42;43.21;101402.94;5053717;28;20052;-60
2022/09/04 06:40:37;;;;;;;4.13;1.27;;;;;;;28.60;43.97;101407.59;5053679;28;20112;-60
2022/09/04 06:43:30;;;;;;;1.17;0.95;;;;;;;28.80;43.83;101410.94;5052639;28;20032;-60
2022/09/04 06:46:10;;;;;;;3.33;1.02;;;;;;;28.98;43.25;101410.06;5052013;28;20478;-60
2022/09/04 06:48:45;;;;;;;2.45;1.00;;;;;;;29.14;42.83;101410.22;5052324;28;20029;-60
2022/09/04 06:51:20;;;;;;;1.90;0.85;;;;;;;29.35;42.39;101408.81;5053415;28;20029;-60
2022/09/04 06:54:07;;;;;;;3.00;1.00;;;;;;;29.49;42.05;101412.19;5053396;28;20482;-60
2022/09/04 06:56:45;;;;;;;4.18;1.10;;;;;;;29.68;42.63;101416.50;5053633;28;20474;-60
2022/09/04 06:59:45;;;;;;;1.13;1.02;;;;;;;29.85;42.21;101414.72;5035177;28;20029;-60
2022/09/04 07:02:45;;;;;;;3.70;0.90;;;;;;;30.06;41.56;101414.09;5052129;28;20037;-61
2022/09/04 07:05:33;;;;;;;4.30;0.85;;;;;;;30.23;41.25;101420.56;5052918;28;20021;-61
2022/09/04 07:08:15;;;;;;;3.33;0.77;;;;;;;30.41;41.57;101425.09;5051997;28;20027;-60
2022/09/04 07:11:15;;;;;;;1.48;1.10;;;;;;;30.56;41.10;101423.50;5052280;28;20079;-60
2022/09/04 07:13:55;;;;;;;1.20;0.80;;;;;;;30.73;40.89;101431.84;5053185;28;20029;-61
2022/09/04 07:16:40;;;;;;;2.40;1.15;;;;;;;30.95;40.47;101423.69;5053213;28;20030;-60
2022/09/04 07:19:24;;;;;;;3.13;1.25;;;;;;;31.14;40.61;101434.31;5051912;28;20059;-61
2022/09/04 07:22:17;;;;;;;2.22;0.90;;;;;;;31.35;39.63;101435.47;5052998;28;20071;-58
2022/09/04 07:25:21;;;;;;;2.65;0.70;;;;;;;31.54;39.62;101439.72;5053064;28;20029;-61
2022/09/04 07:27:54;;;;;;;1.17;1.00;;;;;;;31.74;39.79;101443.91;5053286;28;20044;-58
2022/09/04 07:30:21;;;;;;;3.70;1.10;;;;;;;31.92;38.97;101441.69;5052889;28;20112;-58
2022/09/04 07:33:11;;;;;;;1.92;0.68;;;;;;;32.11;38.77;101439.47;5031938;28;20037;-59
2022/09/04 07:35:49;;;;;;;1.02;0.90;;;;;;;32.28;38.37;101451.34;5052125;28;20060;-59
2022/09/04 07:38:32;;;;;;;2.40;0.93;;;;;;;32.39;38.28;101439.28;5051336;28;20452;-59
2022/09/04 07:41:03;;;;;;;1.80;1.08;;;;;;;32.52;38.00;101451.94;5051571;28;20025;-59
2022/09/04 07:43:51;;;;;;;1.48;0.80;;;;;;;32.59;38.02;101449.81;5052877;28;20494;-59
2022/09/04 07:46:29;;;;;;;1.20;0.98;;;;;;;32.69;37.32;101450.78;5051646;28;20497;-59
2022/09/04 07:49:23;;;;;;;1.48;0.90;;;;;;;32.82;37.31;101447.59;5035268;28;20553;-59
2022/09/04 07:51:58;;;;;;;3.83;0.90;;;;;;;32.99;37.55;101452.22;5052039;28;20128;-59
2022/09/04 07:54:35;;;;;;;1.23;1.00;;;;;;;33.10;36.84;101460.41;5051612;28;20103;-59
2022/09/04 07:57:39;;;;;;;1.65;1.27;;;;;;;33.20;36.60;101459.66;5053017;28;20040;-59
2022/09/04 08:00:21;;;;;;;0.68;0.68;;;;;;;33.30;37.60;101463.41;5055804;28;20025;-59
2022/09/04 08:03:10;;;;;;;3.30;1.10;;;;;;;33.43;36.48;101467.66;5055772;28;20032;-59
2022/09/04 08:05:48;;;;;;;3.90;1.20;;;;;;;33.52;37.47;101462.44;5056753;28;20111;-59
2022/09/04 08:08:16;;;;;;;1.90;0.98;;;;;;;33.68;36.88;101461.50;5055234;28;20029;-58
2022/09/04 08:11:13;;;;;;;1.00;0.90;;;;;;;33.90;36.40;101471.38;5055737;28;20044;-59
2022/09/04 08:14:09;;;;;;;2.28;0.90;;;;;;;34.16;36.78;101468.78;5055174;28;20091;-60
2022/09/04 08:16:56;;;;;;;1.13;1.00;;;;;;;34.36;35.35;101472.53;5055446;28;20084;-59
2022/09/04 08:19:27;;;;;;;4.70;1.08;;;;;;;34.57;35.29;101476.25;5056484;28;20032;-59
2022/09/04 08:21:53;;;;;;;2.92;1.00;;;;;;;34.77;35.33;101470.75;5056389;28;20091;-59
2022/09/04 08:24:48;;;;;;;0.82;0.70;;;;;;;35.00;34.96;101475.84;5054974;28;20025;-59
2022/09/04 08:27:20;;;;;;;1.30;1.02;;;;;;;35.17;34.33;101481.19;5056191;28;20504;-59
2022/09/04 08:30:14;;;;;;;0.80;0.80;;;;;;;35.34;35.06;101480.91;5056109;28;20033;-59
2022/09/04 08:32:59;;;;;;;1.83;1.20;;;;;;;35.45;34.80;101474.25;5049591;28;20040;-59
2022/09/04 08:35:49;;;;;;;4.47;1.02;;;;;;;35.65;34.41;101488.22;5038353;28;20040;-59
2022/09/04 08:38:32;;;;;;;1.38;1.27;;;;;;;35.79;33.89;101483.75;5047215;28;20059;-59
2022/09/04 08:41:42;;;;;;;1.63;1.02;;;;;;;35.78;34.11;101487.63;5035850;28;20057;-60
2022/09/04 08:44:25;;;;;;;1.20;1.10;;;;;;;35.82;34.13;101485.94;5034974;28;20158;-59
2022/09/04 08:47:23;;;;;;;1.38;1.00;;;;;;;35.96;34.00;101489.81;5042675;28;20021;-59
2022/09/04 08:50:24;;;;;;;0.80;0.80;;;;;;;36.06;33.55;101500.16;5025330;28;20518;-59
2022/09/04 08:53:13;;;;;;;3.13;1.13;;;;;;;36.18;33.22;101495.94;5037389;28;20719;-59
2022/09/04 08:56:05;;;;;;;5.10;1.10;;;;;;;36.36;33.09;101493.66;5043332;28;20017;-59
2022/09/04 08:58:52;;;;;;;3.33;1.50;;;;;;;36.59;33.10;101509.81;5037329;28;20020;-58
2022/09/04 09:01:38;;;;;;;1.45;0.90;;;;;;;36.70;32.83;101497.47;5054788;28;20021;-59
2022/09/04 09:04:16;;;;;;;1.30;1.20;;;;;;;36.82;32.62;101500.75;5053481;28;20056;-59
2022/09/04 09:07:03;;;;;;;4.82;1.00;;;;;;;36.99;32.51;101509.66;5053292;28;20032;-59
2022/09/04 09:09:45;;;;;;;2.17;1.00;;;;;;;37.10;31.99;101505.66;5054273;28;20419;-59
2022/09/04 09:12:16;;;;;;;1.95;0.85;;;;;;;37.18;31.86;101504.19;5053601;28;20479;-59
2022/09/04 09:14:54;;;;;;;7.70;1.10;;;;;;;37.25;31.34;101502.75;5054426;28;20108;-59
2022/09/04 09:18:08;;;;;;;2.22;1.15;;;;;;;37.32;31.81;101500.47;5054678;28;20029;-59
2022/09/04 09:20:53;;;;;;;0.90;0.75;;;;;;;37.44;31.83;101496.50;5025636;28;20137;-59
2022/09/04 09:23:49;;;;;;;1.00;0.90;;;;;;;37.60;31.29;101498.88;5036892;28;20074;-60
2022/09/04 09:26:28;;;;;;;2.33;0.93;;;;;;;37.72;30.73;101495.66;5053169;28;20025;-59
2022/09/04 09:29:18;;;;;;;1.05;0.95;;;;;;;37.86;30.60;101491.06;5054240;28;20033;-59
2022/09/04 09:31:56;;;;;;;3.17;0.60;;;;;;;38.05;30.50;101483.63;5053746;28;20485;-59
2022/09/04 09:34:47;;;;;;;1.30;0.95;;;;;;;38.25;30.28;101488.97;5055042;28;20105;-59
2022/09/04 09:37:12;;;;;;;0.85;0.85;;;;;;;38.41;29.63;101496.13;5053221;28;20390;-59
2022/09/04 09:39:56;;;;;;;0.98;0.80;;;;;;;38.55;29.47;101499.03;5051278;28;20104;-59
2022/09/04 09:42:40;;;;;;;0.82;0.65;;;;;;;38.74;29.01;101493.44;5037184;28;20505;-59
2022/09/04 09:45:34;;;;;;;0.93;0.80;;;;;;;39.24;28.50;101498.38;5034871;28;20091;-59
2022/09/04 09:48:24;;;;;;;1.13;1.02;;;;;;;39.92;28.36;101503.44;5033938;28;20025;-60
2022/09/04 09:50:49;;;;;;;2.58;0.90;;;;;;;40.90;27.45;101502.00;5051331;28;20544;-60
2022/09/04 09:53:33;;;;;;;4.05;1.02;;;;;;;42.51;25.60;101500.69;5052251;28;20074;-60
2022/09/04 09:56:41;;;;;;;1.13;1.02;;;;;;;42.19;25.98;101490.59;5053604;28;20457;-59
2022/09/04 09:59:45;;;;;;;1.02;0.85;;;;;;;41.74;26.06;101494.69;5046129;28;20402;-59
2022/09/04 10:02:36;;;;;;;1.63;1.00;;;;;;;41.55;26.10;101503.28;5053736;28;20045;-59
2022/09/04 10:05:27;;;;;;;2.47;1.20;;;;;;;41.52;26.16;101506.72;5053428;28;20040;-59
2022/09/04 10:08:21;;;;;;;0.80;0.80;;;;;;;41.62;25.85;101500.03;5054147;28;20028;-59
2022/09/04 10:11:17;;;;;;;0.88;0.88;;;;;;;41.77;26.28;101497.66;5054202;28;20533;-59
2022/09/04 10:14:04;;;;;;;5.55;1.17;;;;;;;41.95;25.67;101504.22;5052978;28;20017;-59
2022/09/04 10:16:48;;;;;;;1.05;0.95;;;;;;;42.25;25.45;101502.56;5054136;28;20028;-59
2022/09/04 10:19:33;;;;;;;1.50;0.98;;;;;;;42.45;25.10;101501.97;5053502;28;20033;-59
2022/09/04 10:22:26;;;;;;;1.08;0.98;;;;;;;42.69;24.77;101502.41;5051814;28;20392;-59
2022/09/04 10:25:29;;;;;;;0.82;0.80;;;;;;;43.02;24.22;101499.16;5054166;28;20466;-59
2022/09/04 10:28:13;;;;;;;2.13;1.02;;;;;;;43.04;24.37;101496.84;5054110;28;20025;-59
2022/09/04 10:31:16;;;;;;;2.80;1.23;;;;;;;43.12;24.39;101505.31;5053840;28;20032;-59
2022/09/04 10:34:06;;;;;;;0.90;0.80;;;;;;;43.25;24.38;101493.00;5053803;28;20029;-59
2022/09/04 10:36:53;;;;;;;0.80;0.75;;;;;;;43.34;23.77;101501.50;5053752;28;20502;-59
2022/09/04 10:42:44;;;;;;;2.55;1.08;;;;;;;43.45;23.67;101500.00;5053701;28;20494;-59
2022/09/04 10:45:26;;;;;;;2.10;1.02;;;;;;;43.29;23.26;101499.66;5052302;28;20025;-60
2022/09/04 10:47:54;;;;;;;1.95;0.90;;;;;;;43.16;23.61;101488.56;5053594;28;20021;-59
2022/09/04 10:50:26;;;;;;;1.23;0.73;;;;;;;43.06;23.38;101488.88;5053630;28;20108;-59
2022/09/04 10:53:19;;;;;;;1.23;1.13;;;;;;;43.03;23.54;101489.53;5052119;28;20032;-59
2022/09/04 10:56:04;;;;;;;1.15;1.15;;;;;;;42.97;23.21;101494.50;5052420;28;20020;-59
2022/09/04 10:58:38;;;;;;;1.40;1.30;;;;;;;43.04;23.20;101489.22;5052859;28;20079;-59
2022/09/04 11:01:32;;;;;;;1.25;0.82;;;;;;;43.21;22.97;101485.56;5053314;28;20028;-59
2022/09/04 11:04:12;;;;;;;1.13;0.90;;;;;;;43.49;22.52;101486.91;5052106;28;20017;-59
2022/09/04 11:06:46;;;;;;;8.85;1.10;;;;;;;43.80;22.71;101492.34;5053638;28;20033;-59
2022/09/04 11:09:16;;;;;;;2.30;0.88;;;;;;;44.05;21.96;101485.78;5035896;28;20025;-59
2022/09/04 11:11:57;;;;;;;1.40;1.02;;;;;;;43.46;22.27;101481.91;5042942;28;20041;-59
2022/09/04 11:14:54;;;;;;;1.05;0.95;;;;;;;43.51;22.42;101486.53;5045110;28;20025;-59
2022/09/04 11:17:37;;;;;;;1.17;1.08;;;;;;;43.76;22.31;101489.34;5053190;28;20025;-59
2022/09/04 11:20:43;;;;;;;2.35;0.68;;;;;;;43.08;22.62;101480.94;5053179;28;20569;-59
2022/09/04 11:23:33;;;;;;;1.20;0.90;;;;;;;42.59;22.42;101491.44;5053116;28;20079;-59
2022/09/04 11:26:16;;;;;;;1.50;1.08;;;;;;;41.80;23.01;101491.38;5047688;28;20029;-59
2022/09/04 11:29:13;;;;;;;2.05;0.90;;;;;;;41.19;23.57;101485.59;5033217;28;20034;-59
2022/09/04 11:31:45;;;;;;;2.35;0.80;;;;;;;40.72;23.33;101480.47;5032404;28;20049;-59
2022/09/04 11:34:47;;;;;;;0.80;0.80;;;;;;;40.68;23.73;101492.34;5056405;28;20021;-59
2022/09/04 11:37:44;;;;;;;1.73;1.10;;;;;;;40.50;23.74;101484.06;5057155;28;20493;-59
2022/09/04 11:40:21;;;;;;;0.88;0.77;;;;;;;40.71;23.35;101479.66;5057346;28;20434;-58
2022/09/04 11:43:14;;;;;;;1.23;0.63;;;;;;;40.84;23.07;101477.97;5056965;28;20040;-59
2022/09/04 11:45:54;;;;;;;1.88;0.65;;;;;;;40.85;23.15;101476.81;5057232;28;20082;-59
2022/09/04 11:48:44;;;;;;;0.75;0.75;;;;;;;41.13;22.48;101486.84;5056954;28;20478;-59
2022/09/04 11:51:31;;;;;;;1.83;0.80;;;;;;;40.95;22.60;101482.25;5056910;28;20415;-59
2022/09/04 11:53:59;;;;;;;13.98;1.02;;;;;;;40.65;22.73;101486.56;5056615;28;20110;-59
2022/09/04 11:56:33;;;;;;;0.60;0.60;;;;;;;40.42;22.73;101487.56;5056972;28;20466;-59
2022/09/04 11:59:19;;;;;;;0.60;0.60;;;;;;;40.43;22.34;101478.81;5042267;28;20029;-60
2022/09/04 12:02:15;;;;;;;1.67;0.90;;;;;;;40.93;22.94;101484.53;5036653;28;20052;-59
2022/09/04 12:04:48;;;;;;;1.00;0.90;;;;;;;41.04;22.17;101480.34;5018798;28;20026;-60
2022/09/04 12:07:19;;;;;;;1.92;0.70;;;;;;;40.73;22.55;101490.59;5035966;28;20045;-59
2022/09/04 12:10:07;;;;;;;1.03;1.03;;;;;;;40.16;23.37;101475.19;5034828;28;20100;-59
2022/09/04 12:13:26;;;;;;;2.35;0.95;;;;;;;40.14;22.64;101495.16;5036762;28;20021;-59
2022/09/04 12:16:33;;;;;;;1.13;1.10;;;;;;;40.57;22.59;101493.72;5035262;28;20062;-59
2022/09/04 12:19:18;;;;;;;1.05;0.60;;;;;;;40.92;22.32;101502.56;5035483;28;20049;-59
2022/09/04 12:21:56;;;;;;;1.30;0.82;;;;;;;40.79;22.42;101498.56;5036042;28;20053;-59
2022/09/04 12:24:47;;;;;;;1.27;0.82;;;;;;;40.57;22.88;101487.25;5036269;28;20025;-59
2022/09/04 12:27:31;;;;;;;0.68;0.68;;;;;;;40.28;23.60;101492.34;5035225;28;20029;-58
2022/09/04 12:29:56;;;;;;;0.90;0.75;;;;;;;40.00;23.18;101492.31;5036616;28;20072;-59
2022/09/04 12:32:35;;;;;;;1.15;1.08;;;;;;;39.86;23.26;101499.03;5036177;28;20432;-59
2022/09/04 12:35:25;;;;;;;0.65;0.65;;;;;;;39.83;23.46;101491.22;5018405;28;20025;-59
2022/09/04 12:38:00;;;;;;;1.30;0.90;;;;;;;40.06;23.13;101495.84;5038232;28;20487;-59
2022/09/04 12:40:31;;;;;;;3.13;1.17;;;;;;;40.59;22.06;101491.44;5055933;28;20094;-59
2022/09/04 12:43:06;;;;;;;4.72;0.70;;;;;;;40.97;22.61;101491.19;5055378;28;20444;-59
2022/09/04 12:46:05;;;;;;;1.00;0.90;;;;;;;41.11;22.04;101486.34;5054753;28;20028;-59